Aviation Digital Data Service (ADDS)

Output produced by METARs form (0020 UTC 17 July 2019)
found at http://www.aviationweather.gov/metar/data/
 
TAF VLLB 162300Z 1700/1724 27004KT 9999 SCT013 SCT060 BKN080
       
TAF VLPS 162300Z 1700/1724 18004KT 9999 SCT020 SCT050 SCT200
       
TAF VLSK 162300Z 1700/1724 24004KT 8000 SCT020 SCT040 SCT100
       
VLVT 162330Z 02004KT 7000 SCT016 SCT040 26/26 Q1003 NOSIG
TAF VLVT 162300Z 1700/1724 32004KT 9999 SCT016 SCT050 SCT200